sensor_id;sensor_type;location;lat;lon;timestamp;pressure;altitude;pressure_sealevel;temperature;humidity
48872;BME280;36154;51.674;7.824;2023-06-10T00:00:42;100731.28;;;24.22;44.00
48872;BME280;36154;51.674;7.824;2023-06-10T00:03:09;100727.91;;;24.20;43.54
48872;BME280;36154;51.674;7.824;2023-06-10T00:05:35;100725.44;;;24.17;43.76
48872;BME280;36154;51.674;7.824;2023-06-10T00:08:01;100728.19;;;24.14;44.01
48872;BME280;36154;51.674;7.824;2023-06-10T00:10:35;100726.56;;;24.11;43.83
48872;BME280;36154;51.674;7.824;2023-06-10T00:13:02;100728.31;;;24.11;43.96
48872;BME280;36154;51.674;7.824;2023-06-10T00:15:28;100732.81;;;24.07;44.14
48872;BME280;36154;51.674;7.824;2023-06-10T00:17:54;100727.03;;;24.00;44.10
48872;BME280;36154;51.674;7.824;2023-06-10T00:20:20;100734.78;;;24.02;44.51
48872;BME280;36154;51.674;7.824;2023-06-10T00:22:48;100728.81;;;23.98;44.61
48872;BME280;36154;51.674;7.824;2023-06-10T00:25:14;100733.25;;;23.96;44.39
48872;BME280;36154;51.674;7.824;2023-06-10T00:27:39;100732.47;;;23.94;44.46
48872;BME280;36154;51.674;7.824;2023-06-10T00:30:05;100722.19;;;23.91;44.56
48872;BME280;36154;51.674;7.824;2023-06-10T00:32:35;100729.22;;;23.89;44.86
48872;BME280;36154;51.674;7.824;2023-06-10T00:35:01;100721.47;;;23.88;44.68
48872;BME280;36154;51.674;7.824;2023-06-10T00:37:27;100730.91;;;23.90;44.69
48872;BME280;36154;51.674;7.824;2023-06-10T00:39:53;100721.28;;;23.92;44.48
48872;BME280;36154;51.674;7.824;2023-06-10T00:42:19;100722.06;;;23.94;44.85
48872;BME280;36154;51.674;7.824;2023-06-10T00:44:44;100722.06;;;23.94;44.72
48872;BME280;36154;51.674;7.824;2023-06-10T00:47:09;100727.41;;;23.91;44.37
48872;BME280;36154;51.674;7.824;2023-06-10T00:49:35;100725.78;;;23.89;44.23
48872;BME280;36154;51.674;7.824;2023-06-10T00:52:02;100724.13;;;23.86;44.25
48872;BME280;36154;51.674;7.824;2023-06-10T00:54:28;100728.63;;;23.83;44.22
48872;BME280;36154;51.674;7.824;2023-06-10T00:56:54;100727.00;;;23.80;44.20
48872;BME280;36154;51.674;7.824;2023-06-10T00:59:20;100733.13;;;23.79;44.08
48872;BME280;36154;51.674;7.824;2023-06-10T01:01:46;100726.31;;;23.75;44.24
48872;BME280;36154;51.674;7.824;2023-06-10T01:04:17;100726.31;;;23.75;44.46
48872;BME280;36154;51.674;7.824;2023-06-10T01:07:00;100728.94;;;23.75;44.22
48872;BME280;36154;51.674;7.824;2023-06-10T01:09:33;100734.13;;;23.75;43.96
48872;BME280;36154;51.674;7.824;2023-06-10T01:12:43;100733.34;;;23.73;44.08
48872;BME280;36154;51.674;7.824;2023-06-10T01:15:15;100734.25;;;23.72;44.19
48872;BME280;36154;51.674;7.824;2023-06-10T01:18:01;100733.47;;;23.70;44.17
48872;BME280;36154;51.674;7.824;2023-06-10T01:20:28;100737.06;;;23.67;44.18
48872;BME280;36154;51.674;7.824;2023-06-10T01:22:55;100739.78;;;23.64;43.94
48872;BME280;36154;51.674;7.824;2023-06-10T01:25:21;100741.56;;;23.63;43.64
48872;BME280;36154;51.674;7.824;2023-06-10T01:28:05;100739.06;;;23.60;43.69
48872;BME280;36154;51.674;7.824;2023-06-10T01:31:18;100744.38;;;23.57;43.90
48872;BME280;36154;51.674;7.824;2023-06-10T01:33:29;100744.38;;;23.57;43.98
48872;BME280;36154;51.674;7.824;2023-06-10T01:35:57;100740.13;;;23.55;43.73
48872;BME280;36154;51.674;7.824;2023-06-10T01:38:25;100753.16;;;23.55;43.55
48872;BME280;36154;51.674;7.824;2023-06-10T01:40:52;100751.44;;;23.54;43.14
48872;BME280;36154;51.674;7.824;2023-06-10T01:43:20;100749.78;;;23.51;43.50
48872;BME280;36154;51.674;7.824;2023-06-10T01:45:45;100753.31;;;23.50;42.94
48872;BME280;36154;51.674;7.824;2023-06-10T01:48:11;100759.41;;;23.49;42.97
48872;BME280;36154;51.674;7.824;2023-06-10T01:50:36;100748.25;;;23.47;43.10
48872;BME280;36154;51.674;7.824;2023-06-10T01:53:03;100747.38;;;23.47;42.58
48872;BME280;36154;51.674;7.824;2023-06-10T01:55:29;100750.94;;;23.44;42.82
48872;BME280;36154;51.674;7.824;2023-06-10T01:57:54;100747.56;;;23.42;42.82
48872;BME280;36154;51.674;7.824;2023-06-10T02:00:20;100751.13;;;23.39;43.00
48872;BME280;36154;51.674;7.824;2023-06-10T02:02:45;100754.72;;;23.37;42.63
48872;BME280;36154;51.674;7.824;2023-06-10T02:05:11;100743.50;;;23.35;42.83
48872;BME280;36154;51.674;7.824;2023-06-10T02:07:36;100754.03;;;23.32;42.47
48872;BME280;36154;51.674;7.824;2023-06-10T02:10:01;100754.03;;;23.32;42.91
48872;BME280;36154;51.674;7.824;2023-06-10T02:12:27;100752.28;;;23.32;42.48
48872;BME280;36154;51.674;7.824;2023-06-10T02:14:52;100756.69;;;23.30;42.50
48872;BME280;36154;51.674;7.824;2023-06-10T02:17:18;100752.44;;;23.27;42.65
48872;BME280;36154;51.674;7.824;2023-06-10T02:19:44;100759.47;;;23.25;42.57
48872;BME280;36154;51.674;7.824;2023-06-10T02:22:21;100759.56;;;23.22;42.38
48872;BME280;36154;51.674;7.824;2023-06-10T02:24:47;100761.41;;;23.20;42.31
48872;BME280;36154;51.674;7.824;2023-06-10T02:27:14;100760.53;;;23.20;42.40
48872;BME280;36154;51.674;7.824;2023-06-10T02:29:40;100756.31;;;23.17;42.33
48872;BME280;36154;51.674;7.824;2023-06-10T02:32:09;100753.75;;;23.16;41.98
48872;BME280;36154;51.674;7.824;2023-06-10T02:34:35;100765.00;;;23.16;42.21
48872;BME280;36154;51.674;7.824;2023-06-10T02:37:01;100755.53;;;23.15;42.06
48872;BME280;36154;51.674;7.824;2023-06-10T02:39:27;100759.91;;;23.13;41.69
48872;BME280;36154;51.674;7.824;2023-06-10T02:41:53;100753.03;;;23.12;41.85
48872;BME280;36154;51.674;7.824;2023-06-10T02:44:18;100749.72;;;23.08;41.75
48872;BME280;36154;51.674;7.824;2023-06-10T02:46:44;100754.00;;;23.10;41.93
48872;BME280;36154;51.674;7.824;2023-06-10T02:49:09;100758.28;;;23.11;41.78
48872;BME280;36154;51.674;7.824;2023-06-10T02:51:36;100757.47;;;23.10;42.04
48872;BME280;36154;51.674;7.824;2023-06-10T02:54:02;100772.13;;;23.11;41.82
48872;BME280;36154;51.674;7.824;2023-06-10T02:56:27;100768.69;;;23.11;41.88
48872;BME280;36154;51.674;7.824;2023-06-10T02:58:53;100772.22;;;23.08;41.47
48872;BME280;36154;51.674;7.824;2023-06-10T03:01:18;100770.56;;;23.07;41.76
48872;BME280;36154;51.674;7.824;2023-06-10T03:03:44;100769.69;;;23.06;41.65
48872;BME280;36154;51.674;7.824;2023-06-10T03:06:12;100766.38;;;23.03;41.69
48872;BME280;36154;51.674;7.824;2023-06-10T03:08:38;100766.50;;;23.00;41.57
48872;BME280;36154;51.674;7.824;2023-06-10T03:11:03;100769.94;;;23.00;41.65
48872;BME280;36154;51.674;7.824;2023-06-10T03:13:28;100782.09;;;23.00;41.36
48872;BME280;36154;51.674;7.824;2023-06-10T03:15:54;100772.69;;;22.96;41.43
48872;BME280;36154;51.674;7.824;2023-06-10T03:18:19;100775.34;;;22.94;41.54
48872;BME280;36154;51.674;7.824;2023-06-10T03:20:45;100773.72;;;22.92;41.37
48872;BME280;36154;51.674;7.824;2023-06-10T03:23:10;100770.16;;;22.94;41.37
48872;BME280;36154;51.674;7.824;2023-06-10T03:25:36;100779.72;;;22.94;41.36
48872;BME280;36154;51.674;7.824;2023-06-10T03:28:01;100777.94;;;22.94;41.37
48872;BME280;36154;51.674;7.824;2023-06-10T03:30:27;100778.94;;;22.92;41.50
48872;BME280;36154;51.674;7.824;2023-06-10T03:32:53;100773.94;;;22.85;41.19
48872;BME280;36154;51.674;7.824;2023-06-10T03:35:18;100782.41;;;22.91;41.47
48872;BME280;36154;51.674;7.824;2023-06-10T03:37:43;100783.19;;;22.93;41.17
48872;BME280;36154;51.674;7.824;2023-06-10T03:40:09;100780.56;;;22.94;41.10
48872;BME280;36154;51.674;7.824;2023-06-10T03:42:35;100779.75;;;22.92;41.12
48872;BME280;36154;51.674;7.824;2023-06-10T03:45:00;100774.63;;;22.91;41.31
48872;BME280;36154;51.674;7.824;2023-06-10T03:47:26;100783.31;;;22.89;41.46
48872;BME280;36154;51.674;7.824;2023-06-10T03:49:51;100787.72;;;22.87;41.18
48872;BME280;36154;51.674;7.824;2023-06-10T03:52:17;100778.34;;;22.83;41.23
48872;BME280;36154;51.674;7.824;2023-06-10T03:54:42;100792.22;;;22.82;41.16
48872;BME280;36154;51.674;7.824;2023-06-10T03:57:08;100791.41;;;22.80;41.30
48872;BME280;36154;51.674;7.824;2023-06-10T03:59:33;100784.47;;;22.81;41.28
48872;BME280;36154;51.674;7.824;2023-06-10T04:01:58;100788.03;;;22.78;41.26
48872;BME280;36154;51.674;7.824;2023-06-10T04:04:24;100784.66;;;22.75;41.47
48872;BME280;36154;51.674;7.824;2023-06-10T04:06:49;100787.34;;;22.73;41.42
48872;BME280;36154;51.674;7.824;2023-06-10T04:09:15;100789.09;;;22.73;41.49
48872;BME280;36154;51.674;7.824;2023-06-10T04:11:41;100784.81;;;22.71;41.51
48872;BME280;36154;51.674;7.824;2023-06-10T04:14:07;100788.28;;;22.70;41.57
48872;BME280;36154;51.674;7.824;2023-06-10T04:16:33;100782.47;;;22.64;41.38
48872;BME280;36154;51.674;7.824;2023-06-10T04:18:59;100787.56;;;22.67;41.54
48872;BME280;36154;51.674;7.824;2023-06-10T04:21:25;100796.03;;;22.72;41.41
48872;BME280;36154;51.674;7.824;2023-06-10T04:23:51;100794.38;;;22.69;41.59
48872;BME280;36154;51.674;7.824;2023-06-10T04:26:19;100798.78;;;22.67;41.59
48872;BME280;36154;51.674;7.824;2023-06-10T04:28:45;100797.94;;;22.67;41.62
48872;BME280;36154;51.674;7.824;2023-06-10T04:31:12;100798.78;;;22.67;41.52
48872;BME280;36154;51.674;7.824;2023-06-10T04:33:38;100791.06;;;22.66;41.47
48872;BME280;36154;51.674;7.824;2023-06-10T04:36:04;100792.75;;;22.67;41.53
48872;BME280;36154;51.674;7.824;2023-06-10T04:38:31;100797.91;;;22.68;41.69
48872;BME280;36154;51.674;7.824;2023-06-10T04:40:57;100790.94;;;22.69;41.72
48872;BME280;36154;51.674;7.824;2023-06-10T04:43:22;100795.34;;;22.67;41.53
48872;BME280;36154;51.674;7.824;2023-06-10T04:45:47;100790.22;;;22.65;41.45
48872;BME280;36154;51.674;7.824;2023-06-10T04:48:13;100792.91;;;22.62;41.61
48872;BME280;36154;51.674;7.824;2023-06-10T04:50:38;100796.34;;;22.63;41.73
48872;BME280;36154;51.674;7.824;2023-06-10T04:53:04;100803.31;;;22.62;41.77
48872;BME280;36154;51.674;7.824;2023-06-10T04:55:31;100798.16;;;22.61;41.57
48872;BME280;36154;51.674;7.824;2023-06-10T04:57:59;100794.66;;;22.62;41.64
48872;BME280;36154;51.674;7.824;2023-06-10T05:00:25;100795.56;;;22.61;41.77
48872;BME280;36154;51.674;7.824;2023-06-10T05:02:51;100802.47;;;22.62;41.83
48872;BME280;36154;51.674;7.824;2023-06-10T05:05:18;100797.22;;;22.63;41.92
48872;BME280;36154;51.674;7.824;2023-06-10T05:07:44;100795.47;;;22.64;41.73
48872;BME280;36154;51.674;7.824;2023-06-10T05:10:10;100796.25;;;22.66;41.92
48872;BME280;36154;51.674;7.824;2023-06-10T05:12:38;100800.50;;;22.68;41.98
48872;BME280;36154;51.674;7.824;2023-06-10T05:15:05;100804.84;;;22.68;41.77
48872;BME280;36154;51.674;7.824;2023-06-10T05:17:31;100803.16;;;22.67;42.03
48872;BME280;36154;51.674;7.824;2023-06-10T05:19:57;100801.44;;;22.66;42.00
48872;BME280;36154;51.674;7.824;2023-06-10T05:22:23;100805.78;;;22.65;41.84
48872;BME280;36154;51.674;7.824;2023-06-10T05:24:53;100807.50;;;22.66;42.07
48872;BME280;36154;51.674;7.824;2023-06-10T05:27:19;100808.41;;;22.65;41.85
48872;BME280;36154;51.674;7.824;2023-06-10T05:29:45;100813.63;;;22.64;41.77
48872;BME280;36154;51.674;7.824;2023-06-10T05:32:11;100817.13;;;22.63;41.92
48872;BME280;36154;51.674;7.824;2023-06-10T05:34:37;100816.22;;;22.64;41.93
48872;BME280;36154;51.674;7.824;2023-06-10T05:37:03;100820.63;;;22.62;42.07
48872;BME280;36154;51.674;7.824;2023-06-10T05:39:29;100816.34;;;22.61;41.79
48872;BME280;36154;51.674;7.824;2023-06-10T05:41:55;100813.75;;;22.61;42.01
48872;BME280;36154;51.674;7.824;2023-06-10T05:44:22;100811.16;;;22.61;42.04
48872;BME280;36154;51.674;7.824;2023-06-10T05:46:48;100805.91;;;22.62;41.79
48872;BME280;36154;51.674;7.824;2023-06-10T05:49:13;100809.41;;;22.61;41.96
48872;BME280;36154;51.674;7.824;2023-06-10T05:51:39;100813.75;;;22.61;41.63
48872;BME280;36154;51.674;7.824;2023-06-10T05:54:05;100803.34;;;22.61;41.78
48872;BME280;36154;51.674;7.824;2023-06-10T05:56:30;100805.06;;;22.62;41.89
48872;BME280;36154;51.674;7.824;2023-06-10T05:58:56;100797.25;;;22.62;42.01
48872;BME280;36154;51.674;7.824;2023-06-10T06:01:21;100803.25;;;22.64;42.12
48872;BME280;36154;51.674;7.824;2023-06-10T06:03:47;100813.63;;;22.64;42.12
48872;BME280;36154;51.674;7.824;2023-06-10T06:06:13;100808.44;;;22.64;41.78
48872;BME280;36154;51.674;7.824;2023-06-10T06:08:39;100808.41;;;22.65;42.28
48872;BME280;36154;51.674;7.824;2023-06-10T06:11:05;100810.94;;;22.67;41.87
48872;BME280;36154;51.674;7.824;2023-06-10T06:13:30;100813.53;;;22.67;41.95
48872;BME280;36154;51.674;7.824;2023-06-10T06:15:56;100810.06;;;22.68;41.89
48872;BME280;36154;51.674;7.824;2023-06-10T06:18:22;100805.69;;;22.68;41.52
48872;BME280;36154;51.674;7.824;2023-06-10T06:20:48;100808.25;;;22.70;41.76
48872;BME280;36154;51.674;7.824;2023-06-10T06:23:14;100803.03;;;22.70;41.63
48872;BME280;36154;51.674;7.824;2023-06-10T06:25:43;100806.44;;;22.72;41.72
48872;BME280;36154;51.674;7.824;2023-06-10T06:28:09;100799.47;;;22.73;41.33
48872;BME280;36154;51.674;7.824;2023-06-10T06:30:36;100795.84;;;22.78;41.30
48872;BME280;36154;51.674;7.824;2023-06-10T06:33:02;100804.41;;;22.80;41.51
48872;BME280;36154;51.674;7.824;2023-06-10T06:35:31;100802.63;;;22.82;41.17
48872;BME280;36154;51.674;7.824;2023-06-10T06:37:57;100806.00;;;22.84;41.32
48872;BME280;36154;51.674;7.824;2023-06-10T06:40:24;100810.22;;;22.88;41.02
48872;BME280;36154;51.674;7.824;2023-06-10T06:42:50;100809.28;;;22.89;41.06
48872;BME280;36154;51.674;7.824;2023-06-10T06:45:15;100805.69;;;22.94;41.22
48872;BME280;36154;51.674;7.824;2023-06-10T06:47:41;100808.19;;;22.97;40.92
48872;BME280;36154;51.674;7.824;2023-06-10T06:50:07;100811.56;;;22.99;41.00
48872;BME280;36154;51.674;7.824;2023-06-10T06:52:32;100818.47;;;23.00;40.85
48872;BME280;36154;51.674;7.824;2023-06-10T06:54:58;100810.59;;;23.01;40.99
48872;BME280;36154;51.674;7.824;2023-06-10T06:57:24;100810.53;;;23.03;40.80
48872;BME280;36154;51.674;7.824;2023-06-10T06:59:49;100812.19;;;23.05;40.62
48872;BME280;36154;51.674;7.824;2023-06-10T07:02:15;100811.28;;;23.06;40.65
48872;BME280;36154;51.674;7.824;2023-06-10T07:04:41;100815.47;;;23.11;40.47
48872;BME280;36154;51.674;7.824;2023-06-10T07:07:07;100811.00;;;23.14;40.40
48872;BME280;36154;51.674;7.824;2023-06-10T07:09:34;100816.97;;;23.16;40.46
48872;BME280;36154;51.674;7.824;2023-06-10T07:12:03;100822.06;;;23.19;40.23
48872;BME280;36154;51.674;7.824;2023-06-10T07:14:30;100813.28;;;23.23;39.92
48872;BME280;36154;51.674;7.824;2023-06-10T07:16:55;100821.84;;;23.25;39.91
48872;BME280;36154;51.674;7.824;2023-06-10T07:19:21;100819.94;;;23.31;40.29
48872;BME280;36154;51.674;7.824;2023-06-10T07:21:47;100812.91;;;23.33;40.02
48872;BME280;36154;51.674;7.824;2023-06-10T07:24:13;100825.81;;;23.36;39.89
48872;BME280;36154;51.674;7.824;2023-06-10T07:26:38;100819.72;;;23.37;39.69
48872;BME280;36154;51.674;7.824;2023-06-10T07:29:07;100817.06;;;23.38;40.08
48872;BME280;36154;51.674;7.824;2023-06-10T07:31:33;100822.97;;;23.42;39.53
48872;BME280;36154;51.674;7.824;2023-06-10T07:33:58;100822.00;;;23.44;39.95
48872;BME280;36154;51.674;7.824;2023-06-10T07:36:24;100825.31;;;23.48;40.02
48872;BME280;36154;51.674;7.824;2023-06-10T07:38:53;100815.59;;;23.53;40.21
48872;BME280;36154;51.674;7.824;2023-06-10T07:41:18;100826.78;;;23.57;40.23
48872;BME280;36154;51.674;7.824;2023-06-10T07:43:44;100815.41;;;23.59;40.10
48872;BME280;36154;51.674;7.824;2023-06-10T07:46:10;100816.19;;;23.61;39.63
48872;BME280;36154;51.674;7.824;2023-06-10T07:48:36;100824.78;;;23.63;39.33
48872;BME280;36154;51.674;7.824;2023-06-10T07:51:01;100820.38;;;23.66;39.59
48872;BME280;36154;51.674;7.824;2023-06-10T07:53:27;100816.84;;;23.67;39.63
48872;BME280;36154;51.674;7.824;2023-06-10T07:55:53;100816.72;;;23.70;39.70
48872;BME280;36154;51.674;7.824;2023-06-10T07:58:18;100821.81;;;23.73;39.53
48872;BME280;36154;51.674;7.824;2023-06-10T08:00:44;100820.00;;;23.75;39.64
48872;BME280;36154;51.674;7.824;2023-06-10T08:03:10;100818.09;;;23.78;39.31
48872;BME280;36154;51.674;7.824;2023-06-10T08:05:35;100824.06;;;23.82;39.62
48872;BME280;36154;51.674;7.824;2023-06-10T08:08:01;100821.25;;;23.87;39.54
48872;BME280;36154;51.674;7.824;2023-06-10T08:10:27;100824.56;;;23.90;39.24
48872;BME280;36154;51.674;7.824;2023-06-10T08:12:52;100827.06;;;23.93;39.14
48872;BME280;36154;51.674;7.824;2023-06-10T08:15:18;100826.03;;;23.97;39.32
48872;BME280;36154;51.674;7.824;2023-06-10T08:17:44;100822.41;;;24.02;39.56
48872;BME280;36154;51.674;7.824;2023-06-10T08:20:10;100831.84;;;24.04;39.29
48872;BME280;36154;51.674;7.824;2023-06-10T08:22:35;100831.72;;;24.07;39.01
48872;BME280;36154;51.674;7.824;2023-06-10T08:25:01;100832.44;;;24.11;39.30
48872;BME280;36154;51.674;7.824;2023-06-10T08:27:26;100834.06;;;24.13;38.63
48872;BME280;36154;51.674;7.824;2023-06-10T08:29:52;100825.28;;;24.16;38.96
48872;BME280;36154;51.674;7.824;2023-06-10T08:32:18;100827.72;;;24.21;38.66
48872;BME280;36154;51.674;7.824;2023-06-10T08:34:43;100824.13;;;24.23;38.91
48872;BME280;36154;51.674;7.824;2023-06-10T08:37:09;100826.63;;;24.26;38.64
48872;BME280;36154;51.674;7.824;2023-06-10T08:39:35;100825.66;;;24.29;39.17
48872;BME280;36154;51.674;7.824;2023-06-10T08:42:11;100828.06;;;24.33;39.01
48872;BME280;36154;51.674;7.824;2023-06-10T08:44:40;100827.09;;;24.36;38.93
48872;BME280;36154;51.674;7.824;2023-06-10T08:47:14;100830.44;;;24.40;39.16
48872;BME280;36154;51.674;7.824;2023-06-10T08:49:45;100828.59;;;24.42;39.79
48872;BME280;36154;51.674;7.824;2023-06-10T08:52:15;100824.16;;;24.44;39.82
48872;BME280;36154;51.674;7.824;2023-06-10T08:54:45;100824.97;;;24.46;39.63
48872;BME280;36154;51.674;7.824;2023-06-10T08:57:12;100825.81;;;24.46;39.44
48872;BME280;36154;51.674;7.824;2023-06-10T08:59:38;100827.41;;;24.49;39.56
48872;BME280;36154;51.674;7.824;2023-06-10T09:02:04;100817.00;;;24.49;39.42
48872;BME280;36154;51.674;7.824;2023-06-10T09:04:32;100821.31;;;24.50;39.04
48872;BME280;36154;51.674;7.824;2023-06-10T09:06:59;100819.53;;;24.50;39.19
48872;BME280;36154;51.674;7.824;2023-06-10T09:09:26;100818.56;;;24.53;39.42
48872;BME280;36154;51.674;7.824;2023-06-10T09:11:53;100828.09;;;24.54;39.61
48872;BME280;36154;51.674;7.824;2023-06-10T09:14:19;100827.16;;;24.55;39.54
48872;BME280;36154;51.674;7.824;2023-06-10T09:16:44;100821.06;;;24.56;39.43
48872;BME280;36154;51.674;7.824;2023-06-10T09:19:12;100826.25;;;24.56;39.88
48872;BME280;36154;51.674;7.824;2023-06-10T09:21:38;100825.31;;;24.57;39.80
48872;BME280;36154;51.674;7.824;2023-06-10T09:24:05;100814.91;;;24.57;40.19
48872;BME280;36154;51.674;7.824;2023-06-10T09:26:30;100813.09;;;24.59;40.54
48872;BME280;36154;51.674;7.824;2023-06-10T09:29:07;100810.41;;;24.61;40.37
48872;BME280;36154;51.674;7.824;2023-06-10T09:31:38;100812.94;;;24.62;40.56
48872;BME280;36154;51.674;7.824;2023-06-10T09:34:12;100803.53;;;24.60;40.80
48872;BME280;36154;51.674;7.824;2023-06-10T09:36:39;100807.75;;;24.62;41.16
48872;BME280;36154;51.674;7.824;2023-06-10T09:39:13;100813.75;;;24.64;40.96
48872;BME280;36154;51.674;7.824;2023-06-10T09:41:43;100814.53;;;24.66;41.24
48872;BME280;36154;51.674;7.824;2023-06-10T09:44:20;100821.50;;;24.66;41.59
48872;BME280;36154;51.674;7.824;2023-06-10T09:46:48;100805.94;;;24.64;41.28
48872;BME280;36154;51.674;7.824;2023-06-10T09:49:14;100820.69;;;24.64;41.28
48872;BME280;36154;51.674;7.824;2023-06-10T09:51:51;100811.22;;;24.63;41.13
48872;BME280;36154;51.674;7.824;2023-06-10T09:54:17;100826.84;;;24.63;41.03
48872;BME280;36154;51.674;7.824;2023-06-10T09:56:47;100819.88;;;24.63;41.53
48872;BME280;36154;51.674;7.824;2023-06-10T09:59:13;100818.16;;;24.62;41.62
48872;BME280;36154;51.674;7.824;2023-06-10T10:01:38;100819.94;;;24.62;41.47
48872;BME280;36154;51.674;7.824;2023-06-10T10:04:04;100812.94;;;24.62;41.57
48872;BME280;36154;51.674;7.824;2023-06-10T10:06:30;100812.06;;;24.63;41.65
48872;BME280;36154;51.674;7.824;2023-06-10T10:08:56;100815.50;;;24.64;41.29
48872;BME280;36154;51.674;7.824;2023-06-10T10:11:22;100808.53;;;24.64;41.62
48872;BME280;36154;51.674;7.824;2023-06-10T10:13:50;100807.75;;;24.62;41.55
48872;BME280;36154;51.674;7.824;2023-06-10T10:16:21;100802.53;;;24.62;41.52
48872;BME280;36154;51.674;7.824;2023-06-10T10:18:55;100806.97;;;24.60;41.72
48872;BME280;36154;51.674;7.824;2023-06-10T10:21:23;100801.75;;;24.60;41.96
48872;BME280;36154;51.674;7.824;2023-06-10T10:24:12;100799.16;;;24.60;41.95
48872;BME280;36154;51.674;7.824;2023-06-10T10:26:40;100806.06;;;24.61;42.14
48872;BME280;36154;51.674;7.824;2023-06-10T10:31:43;100794.66;;;24.64;42.06
48872;BME280;36154;51.674;7.824;2023-06-10T10:34:16;100797.19;;;24.65;41.72
48872;BME280;36154;51.674;7.824;2023-06-10T10:36:45;100809.31;;;24.66;42.10
48872;BME280;36154;51.674;7.824;2023-06-10T10:39:12;100798.91;;;24.66;41.89
48872;BME280;36154;51.674;7.824;2023-06-10T10:41:38;100800.56;;;24.67;42.15
48872;BME280;36154;51.674;7.824;2023-06-10T10:44:06;100799.66;;;24.68;42.27
48872;BME280;36154;51.674;7.824;2023-06-10T10:46:43;100797.00;;;24.70;41.95
48872;BME280;36154;51.674;7.824;2023-06-10T10:49:11;100794.38;;;24.70;42.35
48872;BME280;36154;51.674;7.824;2023-06-10T10:51:54;100793.44;;;24.72;42.02
48872;BME280;36154;51.674;7.824;2023-06-10T10:54:31;100795.09;;;24.73;42.23
48872;BME280;36154;51.674;7.824;2023-06-10T11:02:09;100785.50;;;24.74;42.42
48872;BME280;36154;51.674;7.824;2023-06-10T11:04:35;100789.88;;;24.73;42.43
48872;BME280;36154;51.674;7.824;2023-06-10T11:07:07;100785.50;;;24.74;43.04
48872;BME280;36154;51.674;7.824;2023-06-10T11:09:32;100784.69;;;24.73;43.08
48872;BME280;36154;51.674;7.824;2023-06-10T11:11:58;100784.69;;;24.73;42.88
48872;BME280;36154;51.674;7.824;2023-06-10T11:14:27;100779.47;;;24.73;43.08
48872;BME280;36154;51.674;7.824;2023-06-10T11:16:58;100776.94;;;24.72;43.33
48872;BME280;36154;51.674;7.824;2023-06-10T11:19:37;100782.06;;;24.73;43.55
48872;BME280;36154;51.674;7.824;2023-06-10T11:22:06;100774.25;;;24.73;43.18
48872;BME280;36154;51.674;7.824;2023-06-10T11:24:35;100772.56;;;24.72;43.34
48872;BME280;36154;51.674;7.824;2023-06-10T11:27:22;100775.19;;;24.72;43.38
48872;BME280;36154;51.674;7.824;2023-06-10T11:32:33;100764.81;;;24.71;43.50
48872;BME280;36154;51.674;7.824;2023-06-10T11:34:59;100767.38;;;24.72;43.66
48872;BME280;36154;51.674;7.824;2023-06-10T11:37:25;100761.28;;;24.72;43.64
48872;BME280;36154;51.674;7.824;2023-06-10T11:39:55;100763.06;;;24.71;43.59
48872;BME280;36154;51.674;7.824;2023-06-10T11:42:24;100768.28;;;24.71;43.23
48872;BME280;36154;51.674;7.824;2023-06-10T11:44:51;100765.66;;;24.71;43.79
48872;BME280;36154;51.674;7.824;2023-06-10T11:47:18;100765.66;;;24.71;43.53
48872;BME280;36154;51.674;7.824;2023-06-10T11:49:44;100760.44;;;24.71;43.28
48872;BME280;36154;51.674;7.824;2023-06-10T11:52:11;100752.63;;;24.71;43.35
48872;BME280;36154;51.674;7.824;2023-06-10T11:54:38;100758.75;;;24.70;43.67
48872;BME280;36154;51.674;7.824;2023-06-10T11:57:03;100758.75;;;24.70;43.43
48872;BME280;36154;51.674;7.824;2023-06-10T11:59:30;100757.84;;;24.71;43.65
48872;BME280;36154;51.674;7.824;2023-06-10T12:01:56;100765.66;;;24.71;43.89
48872;BME280;36154;51.674;7.824;2023-06-10T12:04:22;100757.06;;;24.69;43.63
48872;BME280;36154;51.674;7.824;2023-06-10T12:06:50;100752.63;;;24.71;43.52
48872;BME280;36154;51.674;7.824;2023-06-10T12:09:21;100752.63;;;24.71;43.62
48872;BME280;36154;51.674;7.824;2023-06-10T12:11:53;100752.63;;;24.71;43.81
48872;BME280;36154;51.674;7.824;2023-06-10T12:14:57;100747.44;;;24.71;43.56
48872;BME280;36154;51.674;7.824;2023-06-10T12:19:59;100749.84;;;24.76;44.20
48872;BME280;36154;51.674;7.824;2023-06-10T12:22:25;100751.44;;;24.79;44.35
48872;BME280;36154;51.674;7.824;2023-06-10T12:25:05;100752.13;;;24.82;44.65
48872;BME280;36154;51.674;7.824;2023-06-10T12:27:35;100753.78;;;24.85;44.72
48872;BME280;36154;51.674;7.824;2023-06-10T12:30:03;100745.81;;;24.88;44.62
48872;BME280;36154;51.674;7.824;2023-06-10T12:32:43;100748.22;;;24.92;44.55
48872;BME280;36154;51.674;7.824;2023-06-10T12:35:12;100750.72;;;24.94;44.66
48872;BME280;36154;51.674;7.824;2023-06-10T12:37:38;100749.06;;;24.93;44.73
48872;BME280;36154;51.674;7.824;2023-06-10T12:40:05;100744.69;;;24.93;44.41
48872;BME280;36154;51.674;7.824;2023-06-10T12:42:35;100745.53;;;24.94;44.66
48872;BME280;36154;51.674;7.824;2023-06-10T12:45:01;100740.31;;;24.94;44.62
48872;BME280;36154;51.674;7.824;2023-06-10T12:47:31;100738.63;;;24.93;44.17
48872;BME280;36154;51.674;7.824;2023-06-10T12:49:59;100748.22;;;24.92;44.31
48872;BME280;36154;51.674;7.824;2023-06-10T12:52:25;100747.38;;;24.92;44.19
48872;BME280;36154;51.674;7.824;2023-06-10T12:54:50;100738.63;;;24.93;44.63
48872;BME280;36154;51.674;7.824;2023-06-10T12:57:17;100737.81;;;24.92;44.72
48872;BME280;36154;51.674;7.824;2023-06-10T12:59:42;100745.53;;;24.94;44.34
48872;BME280;36154;51.674;7.824;2023-06-10T13:02:15;100736.84;;;24.95;44.56
48872;BME280;36154;51.674;7.824;2023-06-10T13:04:41;100736.84;;;24.95;44.60